createdAt,value
2017-10-31T00:01:57.778Z,6.07
2017-10-31T00:04:28.628Z,5.13
2017-10-31T00:06:59.500Z,5.80
2017-10-31T00:09:30.353Z,3.87
2017-10-31T00:12:01.192Z,6.70
2017-10-31T00:14:32.029Z,4.87
2017-10-31T00:17:02.909Z,4.30
2017-10-31T00:19:33.754Z,5.77
2017-10-31T00:22:04.622Z,6.67
2017-10-31T00:24:35.456Z,6.20
2017-10-31T00:27:06.325Z,4.00
2017-10-31T00:29:37.175Z,5.87
2017-10-31T00:32:08.052Z,11.13
2017-10-31T00:34:38.904Z,5.13
2017-10-31T00:37:09.755Z,4.70
2017-10-31T00:39:40.583Z,6.40
2017-10-31T00:42:11.427Z,4.90
2017-10-31T00:44:42.287Z,2.77
2017-10-31T00:47:13.161Z,6.73
2017-10-31T00:49:44.004Z,6.40
2017-10-31T00:52:14.855Z,3.47
2017-10-31T00:54:45.715Z,4.83
2017-10-31T00:57:16.544Z,3.17
2017-10-31T00:59:47.424Z,5.57
2017-10-31T01:02:18.248Z,5.63
2017-10-31T01:04:49.135Z,7.13
2017-10-31T01:07:19.960Z,5.83
2017-10-31T01:09:50.781Z,4.97
2017-10-31T01:12:21.588Z,4.50
2017-10-31T01:14:52.407Z,3.30
2017-10-31T01:17:23.207Z,4.50
2017-10-31T01:19:54.122Z,4.50
2017-10-31T01:22:24.953Z,3.77
2017-10-31T01:24:55.789Z,3.87
2017-10-31T01:27:26.664Z,4.50
2017-10-31T01:29:57.518Z,4.83
2017-10-31T01:32:28.372Z,5.53
2017-10-31T01:34:59.216Z,5.57
2017-10-31T01:37:30.092Z,4.63
2017-10-31T01:40:00.928Z,5.60
2017-10-31T01:42:31.793Z,4.60
2017-10-31T01:45:02.632Z,5.00
2017-10-31T01:47:33.492Z,5.60
2017-10-31T01:50:04.352Z,3.97
2017-10-31T01:52:35.196Z,5.93
2017-10-31T01:55:06.033Z,3.97
2017-10-31T01:57:36.899Z,4.07
2017-10-31T02:00:07.747Z,4.90
2017-10-31T02:02:38.575Z,5.93
2017-10-31T02:05:09.417Z,6.30
2017-10-31T02:07:40.264Z,3.70
2017-10-31T02:10:11.123Z,4.67
2017-10-31T02:12:41.984Z,5.43
2017-10-31T02:15:12.823Z,4.47
2017-10-31T02:17:43.665Z,5.37
2017-10-31T02:20:14.525Z,4.13
2017-10-31T02:22:45.371Z,2.90
2017-10-31T02:25:16.207Z,3.57
2017-10-31T02:27:47.056Z,4.23
2017-10-31T02:30:17.909Z,4.10
2017-10-31T02:32:48.768Z,3.47
2017-10-31T02:35:19.607Z,4.50
2017-10-31T02:37:50.461Z,4.13
2017-10-31T02:40:21.316Z,4.63
2017-10-31T02:42:52.160Z,5.10
2017-10-31T02:45:23.009Z,5.47
2017-10-31T02:47:53.864Z,3.60
2017-10-31T02:50:24.696Z,5.40
2017-10-31T02:52:55.568Z,4.20
2017-10-31T02:55:26.449Z,3.37
2017-10-31T02:57:57.288Z,3.30
2017-10-31T03:00:28.150Z,4.50
2017-10-31T03:02:59.016Z,5.53
2017-10-31T03:05:29.860Z,3.90
2017-10-31T03:08:00.697Z,4.13
2017-10-31T03:10:31.537Z,3.53
2017-10-31T03:13:02.363Z,3.77
2017-10-31T03:15:33.216Z,3.57
2017-10-31T03:18:04.039Z,5.37
2017-10-31T03:20:34.857Z,3.53
2017-10-31T03:23:05.691Z,5.93
2017-10-31T03:25:36.540Z,8.13
2017-10-31T03:28:07.379Z,5.53
2017-10-31T03:30:38.223Z,6.67
2017-10-31T03:33:09.100Z,4.27
2017-10-31T03:35:39.936Z,5.90
2017-10-31T03:38:10.804Z,3.97
2017-10-31T03:40:41.664Z,3.50
2017-10-31T03:43:12.507Z,4.00
2017-10-31T03:45:43.360Z,4.27
2017-10-31T03:48:14.215Z,3.83
2017-10-31T03:50:45.056Z,4.00
2017-10-31T03:53:15.908Z,5.50
2017-10-31T03:55:46.739Z,4.80
2017-10-31T03:58:17.588Z,3.60
2017-10-31T04:00:48.432Z,4.47
2017-10-31T04:03:19.278Z,7.23
2017-10-31T04:05:50.123Z,4.83
2017-10-31T04:08:20.960Z,4.53
2017-10-31T04:10:51.823Z,4.73
2017-10-31T04:13:22.681Z,3.50
2017-10-31T04:15:53.548Z,4.77
2017-10-31T04:18:24.371Z,3.57
2017-10-31T04:20:55.207Z,3.97
2017-10-31T04:23:26.035Z,5.40
2017-10-31T04:25:56.904Z,4.73
2017-10-31T04:28:27.744Z,3.90
2017-10-31T04:30:58.627Z,8.00
2017-10-31T04:33:29.555Z,4.50
2017-10-31T04:36:00.385Z,5.67
2017-10-31T04:38:31.270Z,3.87
2017-10-31T04:41:02.103Z,3.67
2017-10-31T04:43:32.949Z,4.53
2017-10-31T04:46:03.781Z,3.70
2017-10-31T04:48:34.636Z,4.00
2017-10-31T04:51:05.494Z,6.00
2017-10-31T04:53:36.337Z,4.80
2017-10-31T04:56:07.187Z,3.77
2017-10-31T04:58:38.042Z,5.27
2017-10-31T05:01:08.875Z,2.40
2017-10-31T05:03:39.727Z,4.13
2017-10-31T05:06:10.596Z,3.50
2017-10-31T05:08:41.427Z,3.93
2017-10-31T05:11:12.547Z,5.43
2017-10-31T05:13:43.375Z,3.92
2017-10-31T05:16:14.212Z,3.03
2017-10-31T05:18:45.036Z,8.03
2017-10-31T05:21:15.873Z,4.30
2017-10-31T05:23:46.794Z,2.97
2017-10-31T05:26:17.659Z,7.70
2017-10-31T05:28:48.507Z,4.97
2017-10-31T05:31:19.364Z,5.27
2017-10-31T05:33:50.204Z,5.13
2017-10-31T05:36:21.085Z,4.60
2017-10-31T05:38:51.949Z,7.60
2017-10-31T05:41:22.837Z,6.30
2017-10-31T05:43:53.667Z,8.27
2017-10-31T05:46:24.511Z,5.13
2017-10-31T05:48:55.472Z,6.87
2017-10-31T05:51:26.296Z,4.87
2017-10-31T05:53:57.135Z,6.97
2017-10-31T05:56:27.972Z,5.60
2017-10-31T05:58:58.852Z,11.87
2017-10-31T06:03:38.310Z,9.10
2017-10-31T06:06:09.168Z,10.07
2017-10-31T06:08:40.009Z,12.70
2017-10-31T06:11:10.888Z,17.37
2017-10-31T06:13:41.728Z,16.53
2017-10-31T06:16:12.584Z,21.20
2017-10-31T06:18:43.436Z,25.03
2017-10-31T06:21:14.305Z,23.47
2017-10-31T06:23:45.145Z,24.77
2017-10-31T06:26:15.991Z,30.17
2017-10-31T06:28:46.840Z,31.33
2017-10-31T06:31:17.689Z,26.07
2017-10-31T06:33:48.540Z,27.83
2017-10-31T06:36:19.401Z,27.67
2017-10-31T06:38:50.260Z,17.70
2017-10-31T06:41:21.095Z,14.37
2017-10-31T06:43:51.953Z,8.33
2017-10-31T06:46:22.789Z,9.10
2017-10-31T06:48:53.652Z,12.57
2017-10-31T06:51:24.485Z,8.23
2017-10-31T06:53:55.351Z,6.30
2017-10-31T06:56:26.220Z,5.73
2017-10-31T06:58:57.059Z,7.67
2017-10-31T07:01:27.915Z,4.67
2017-10-31T07:03:58.757Z,7.90
2017-10-31T07:06:29.584Z,4.57
2017-10-31T07:09:00.444Z,11.20
2017-10-31T07:11:31.304Z,12.37
2017-10-31T07:14:02.184Z,7.63
2017-10-31T07:16:33.043Z,8.93
2017-10-31T07:19:03.876Z,9.57
2017-10-31T07:21:34.757Z,9.97
2017-10-31T07:24:05.587Z,9.23
2017-10-31T07:26:36.444Z,15.40
2017-10-31T07:29:07.299Z,8.60
2017-10-31T07:31:38.139Z,8.20
2017-10-31T07:34:09.036Z,8.63
2017-10-31T07:36:39.855Z,7.93
2017-10-31T07:39:10.701Z,8.30
2017-10-31T07:41:41.544Z,7.00
2017-10-31T07:44:12.396Z,8.93
2017-10-31T07:46:43.234Z,10.63
2017-10-31T07:49:14.107Z,6.90
2017-10-31T07:51:44.968Z,9.70
2017-10-31T07:54:15.835Z,10.07
2017-10-31T07:56:46.689Z,7.53
2017-10-31T07:59:17.540Z,11.97
2017-10-31T08:01:48.399Z,9.23
2017-10-31T08:04:19.256Z,12.10
2017-10-31T08:06:50.103Z,6.43
2017-10-31T08:09:20.996Z,6.33
2017-10-31T08:11:51.899Z,7.70
2017-10-31T08:14:22.721Z,9.80
2017-10-31T08:16:53.575Z,5.73
2017-10-31T08:19:24.414Z,5.33
2017-10-31T08:21:55.285Z,6.47
2017-10-31T08:24:26.127Z,5.73
2017-10-31T08:26:56.985Z,6.37
2017-10-31T08:29:27.825Z,4.20
2017-10-31T08:31:58.685Z,5.87
2017-10-31T08:34:29.562Z,3.87
2017-10-31T08:37:00.414Z,2.77
2017-10-31T08:39:31.290Z,2.30
2017-10-31T08:42:02.220Z,1.93
2017-10-31T08:44:33.079Z,1.50
2017-10-31T08:47:03.931Z,2.23
2017-10-31T08:49:34.769Z,2.00
2017-10-31T08:52:05.640Z,0.80
2017-10-31T08:54:36.482Z,3.17
2017-10-31T08:57:07.343Z,0.90
2017-10-31T08:59:38.205Z,1.40
2017-10-31T09:02:09.052Z,2.80
2017-10-31T09:04:39.904Z,0.90
2017-10-31T09:07:10.756Z,1.07
2017-10-31T09:09:41.622Z,1.10
2017-10-31T09:12:12.476Z,1.33
2017-10-31T09:14:43.314Z,1.80
2017-10-31T09:17:14.148Z,0.90
2017-10-31T09:19:45.016Z,1.47
2017-10-31T09:22:15.845Z,1.33
2017-10-31T09:24:46.699Z,0.40
2017-10-31T09:27:17.554Z,0.70
2017-10-31T09:29:48.415Z,0.83
2017-10-31T09:32:19.265Z,0.60
2017-10-31T09:34:50.134Z,0.40
2017-10-31T09:37:20.995Z,0.50
2017-10-31T09:39:51.836Z,0.60
2017-10-31T09:42:22.718Z,0.50
2017-10-31T09:44:53.564Z,0.63
2017-10-31T09:47:24.425Z,0.50
2017-10-31T09:49:55.248Z,1.07
2017-10-31T09:52:26.076Z,0.40
2017-10-31T09:54:56.899Z,0.63
2017-10-31T09:57:27.776Z,0.90
2017-10-31T09:59:58.612Z,0.70
2017-10-31T10:02:29.471Z,0.60
2017-10-31T10:05:00.331Z,0.43
2017-10-31T10:07:31.178Z,0.70
2017-10-31T10:10:02.035Z,0.30
2017-10-31T10:12:32.896Z,0.30
2017-10-31T10:15:03.742Z,0.30
2017-10-31T10:17:34.575Z,1.07
2017-10-31T10:20:05.432Z,0.40
2017-10-31T10:22:36.283Z,0.40
2017-10-31T10:25:07.157Z,0.40
2017-10-31T10:27:37.996Z,0.40
2017-10-31T10:30:08.868Z,0.40
2017-10-31T10:32:39.705Z,0.50
2017-10-31T10:35:10.563Z,0.63
2017-10-31T10:37:41.411Z,0.50
2017-10-31T10:40:12.268Z,1.37
2017-10-31T10:42:43.123Z,0.43
2017-10-31T10:45:13.970Z,0.50
2017-10-31T10:47:44.824Z,0.87
2017-10-31T10:50:15.676Z,0.50
2017-10-31T10:52:46.540Z,1.10
2017-10-31T10:55:17.406Z,1.27
2017-10-31T10:57:48.297Z,1.17
2017-10-31T11:00:19.149Z,0.90
2017-10-31T11:02:50.014Z,0.90
2017-10-31T11:05:20.893Z,1.37
2017-10-31T11:07:51.759Z,0.60
2017-10-31T11:10:22.637Z,1.17
2017-10-31T11:12:53.481Z,1.03
2017-10-31T11:15:24.328Z,0.70
2017-10-31T11:17:55.197Z,0.97
2017-10-31T11:20:26.039Z,0.87
2017-10-31T11:22:56.906Z,0.80
2017-10-31T11:25:27.753Z,1.60
2017-10-31T11:27:58.599Z,1.03
2017-10-31T11:30:29.568Z,1.50
2017-10-31T11:33:00.376Z,1.27
2017-10-31T11:35:31.256Z,2.03
2017-10-31T11:38:02.104Z,1.00
2017-10-31T11:40:32.956Z,0.70
2017-10-31T11:43:03.784Z,0.70
2017-10-31T11:45:34.612Z,1.33
2017-10-31T11:48:05.477Z,1.27
2017-10-31T11:50:36.367Z,0.83
2017-10-31T11:53:07.212Z,0.87
2017-10-31T11:55:38.072Z,0.97
2017-10-31T11:58:08.916Z,1.23
2017-10-31T12:00:39.777Z,1.53
2017-10-31T12:03:10.628Z,0.87
2017-10-31T12:05:41.486Z,0.80
2017-10-31T12:08:12.344Z,1.20
2017-10-31T12:10:43.216Z,1.60
2017-10-31T12:13:14.068Z,1.63
2017-10-31T12:15:44.945Z,1.07
2017-10-31T12:18:15.811Z,0.70
2017-10-31T12:20:46.665Z,1.53
2017-10-31T12:23:17.517Z,1.13
2017-10-31T12:25:48.383Z,1.03
2017-10-31T12:28:19.206Z,1.73
2017-10-31T12:30:50.048Z,0.97
2017-10-31T12:33:20.923Z,1.37
2017-10-31T12:35:51.782Z,1.13
2017-10-31T12:38:22.637Z,1.40
2017-10-31T12:40:53.525Z,1.20
2017-10-31T12:43:24.375Z,1.20
2017-10-31T12:45:55.258Z,1.03
2017-10-31T12:48:26.130Z,0.97
2017-10-31T12:50:57.003Z,1.43
2017-10-31T12:53:27.863Z,1.47
2017-10-31T12:55:58.709Z,0.97
2017-10-31T12:58:29.569Z,0.80
2017-10-31T13:01:00.433Z,0.87
2017-10-31T13:03:31.298Z,1.20
2017-10-31T13:06:02.147Z,1.20
2017-10-31T13:08:33.023Z,0.80
2017-10-31T13:11:03.880Z,2.00
2017-10-31T13:13:34.746Z,1.20
2017-10-31T13:16:05.608Z,1.00
2017-10-31T13:18:36.461Z,1.10
2017-10-31T13:21:07.909Z,1.17
2017-10-31T13:23:38.749Z,1.73
2017-10-31T13:26:09.619Z,1.13
2017-10-31T13:28:40.467Z,1.23
2017-10-31T13:31:11.303Z,0.80
2017-10-31T13:33:42.179Z,1.10
2017-10-31T13:36:13.015Z,1.43
2017-10-31T13:38:43.911Z,1.50
2017-10-31T13:41:14.749Z,1.57
2017-10-31T13:43:45.628Z,1.27
2017-10-31T13:46:16.505Z,1.00
2017-10-31T13:48:47.376Z,1.20
2017-10-31T13:51:18.247Z,1.97
2017-10-31T13:53:49.156Z,0.80
2017-10-31T13:56:20.020Z,1.00
2017-10-31T13:58:50.895Z,0.70
2017-10-31T14:01:21.865Z,1.03
2017-10-31T14:03:52.798Z,1.20
2017-10-31T14:06:23.691Z,1.23
2017-10-31T14:08:54.673Z,1.00
2017-10-31T14:11:25.563Z,1.13
2017-10-31T14:13:56.444Z,1.17
2017-10-31T14:16:27.393Z,0.97
2017-10-31T14:18:58.285Z,1.10
2017-10-31T14:21:29.839Z,1.50
2017-10-31T14:24:00.710Z,0.90
2017-10-31T14:26:31.593Z,1.83
2017-10-31T14:29:02.481Z,1.27
2017-10-31T14:31:33.397Z,0.90
2017-10-31T14:34:04.274Z,1.40
2017-10-31T14:36:35.168Z,1.00
2017-10-31T14:39:06.046Z,0.93
2017-10-31T14:41:36.933Z,1.13
2017-10-31T14:44:07.816Z,1.30
2017-10-31T14:46:38.733Z,1.30
2017-10-31T14:49:09.615Z,1.50
2017-10-31T14:51:40.483Z,1.27
2017-10-31T14:54:11.383Z,1.07
2017-10-31T14:56:42.292Z,1.23
2017-10-31T14:59:13.170Z,1.60
2017-10-31T15:01:44.105Z,1.07
2017-10-31T15:04:14.960Z,1.40
2017-10-31T15:06:45.861Z,1.40
2017-10-31T15:09:16.717Z,1.10
2017-10-31T15:11:47.612Z,1.30
2017-10-31T15:14:18.520Z,2.07
2017-10-31T15:16:49.394Z,1.27
2017-10-31T15:19:20.292Z,1.30
2017-10-31T15:21:51.172Z,3.00
2017-10-31T15:24:22.061Z,1.97
2017-10-31T15:26:52.990Z,2.10
2017-10-31T15:29:24.581Z,1.13
2017-10-31T15:31:55.445Z,0.82
2017-10-31T15:34:26.412Z,1.20
2017-10-31T15:36:57.343Z,1.30
2017-10-31T15:39:28.216Z,1.10
2017-10-31T15:41:59.115Z,1.23
2017-10-31T15:44:30.010Z,1.03
2017-10-31T15:47:00.938Z,1.60
2017-10-31T15:49:31.859Z,1.23
2017-10-31T15:52:02.773Z,1.33
2017-10-31T15:54:33.689Z,1.60
2017-10-31T15:57:04.591Z,0.87
2017-10-31T15:59:35.496Z,1.70
2017-10-31T16:02:06.395Z,1.53
2017-10-31T16:04:37.309Z,0.90
2017-10-31T16:07:08.210Z,1.13
2017-10-31T16:09:39.094Z,0.90
2017-10-31T16:12:10.108Z,1.70
2017-10-31T16:14:41.138Z,1.10
2017-10-31T16:17:12.015Z,2.00
2017-10-31T16:19:42.893Z,1.37
2017-10-31T16:22:13.815Z,1.70
2017-10-31T16:24:44.685Z,1.67
2017-10-31T16:27:15.585Z,1.60
2017-10-31T16:29:46.518Z,1.53
2017-10-31T16:32:17.413Z,1.30
2017-10-31T16:34:48.307Z,1.40
2017-10-31T16:37:19.208Z,1.30
2017-10-31T16:39:50.091Z,1.80
2017-10-31T16:42:21.006Z,1.43
2017-10-31T16:44:51.894Z,2.07
2017-10-31T16:47:22.800Z,2.10
2017-10-31T16:49:53.710Z,1.57
2017-10-31T16:52:24.737Z,1.30
2017-10-31T16:54:55.632Z,1.90
2017-10-31T16:57:26.525Z,1.40
2017-10-31T16:59:57.429Z,1.80
2017-10-31T17:02:28.297Z,1.60
2017-10-31T17:04:59.183Z,1.57
2017-10-31T17:07:30.041Z,1.90
2017-10-31T17:10:00.991Z,2.53
2017-10-31T17:12:31.847Z,1.93
2017-10-31T17:15:02.749Z,1.47
2017-10-31T17:17:33.624Z,1.63
2017-10-31T17:20:04.646Z,1.67
2017-10-31T17:22:35.536Z,1.35
2017-10-31T17:25:06.463Z,2.67
2017-10-31T17:27:37.337Z,2.60
2017-10-31T17:30:08.228Z,1.50
2017-10-31T17:32:39.126Z,1.40
2017-10-31T17:35:10.075Z,1.00
2017-10-31T17:37:41.033Z,1.73
2017-10-31T17:40:11.963Z,2.13
2017-10-31T17:42:42.883Z,1.80
2017-10-31T17:45:13.764Z,1.73
2017-10-31T17:47:44.664Z,2.10
2017-10-31T17:50:15.552Z,1.23
2017-10-31T17:52:46.425Z,1.50
2017-10-31T17:55:17.317Z,1.83
2017-10-31T17:57:48.201Z,1.47
2017-10-31T18:00:19.095Z,1.40
2017-10-31T18:02:49.956Z,1.90
2017-10-31T18:05:20.869Z,2.00
2017-10-31T18:07:51.786Z,1.90
2017-10-31T18:10:22.681Z,2.10
2017-10-31T18:12:53.586Z,1.90
2017-10-31T18:15:24.486Z,1.60
2017-10-31T18:17:55.380Z,1.77
2017-10-31T18:20:26.302Z,1.60
2017-10-31T18:22:57.183Z,1.73
2017-10-31T18:25:28.112Z,2.20
2017-10-31T18:27:59.010Z,1.57
2017-10-31T18:30:29.903Z,1.60
2017-10-31T18:33:00.795Z,1.90
2017-10-31T18:35:31.811Z,1.73
2017-10-31T18:38:02.698Z,2.20
2017-10-31T18:40:33.587Z,2.20
2017-10-31T18:43:04.488Z,2.00
2017-10-31T18:45:35.380Z,1.63
2017-10-31T18:48:06.278Z,1.83
2017-10-31T18:50:37.168Z,1.90
2017-10-31T18:53:08.064Z,1.87
2017-10-31T18:55:38.977Z,1.80
2017-10-31T18:58:09.854Z,1.67
2017-10-31T19:00:40.743Z,2.00
2017-10-31T19:03:11.622Z,1.77
2017-10-31T19:05:42.524Z,1.97
2017-10-31T19:08:13.401Z,2.50
2017-10-31T19:10:44.295Z,1.93
2017-10-31T19:13:15.208Z,2.00
2017-10-31T19:15:46.085Z,2.30
2017-10-31T19:18:16.996Z,2.20
2017-10-31T19:20:47.896Z,1.90
2017-10-31T19:23:18.792Z,2.27
2017-10-31T19:25:49.779Z,2.50
2017-10-31T19:28:20.684Z,2.22
2017-10-31T19:30:51.663Z,1.70
2017-10-31T19:33:22.533Z,2.00
2017-10-31T19:35:53.479Z,2.13
2017-10-31T19:38:24.481Z,1.47
2017-10-31T19:40:55.382Z,2.42
2017-10-31T19:43:26.284Z,2.03
2017-10-31T19:45:57.172Z,1.80
2017-10-31T19:48:28.073Z,2.70
2017-10-31T19:50:58.959Z,1.80
2017-10-31T19:53:29.854Z,2.13
2017-10-31T19:56:00.751Z,2.50
2017-10-31T19:58:31.665Z,1.97
2017-10-31T20:01:02.624Z,3.40
2017-10-31T20:03:33.534Z,1.90
2017-10-31T20:06:04.434Z,2.17
2017-10-31T20:08:35.314Z,1.67
2017-10-31T20:11:06.299Z,1.93
2017-10-31T20:13:37.180Z,2.50
2017-10-31T20:16:08.073Z,1.80
2017-10-31T20:18:39.115Z,2.00
2017-10-31T20:21:09.997Z,1.67
2017-10-31T20:23:40.879Z,2.50
2017-10-31T20:26:11.794Z,2.83
2017-10-31T20:28:42.666Z,2.20
2017-10-31T20:31:13.608Z,3.07
2017-10-31T20:33:44.523Z,2.40
2017-10-31T20:36:15.385Z,4.23
2017-10-31T20:38:46.291Z,2.73
2017-10-31T20:41:17.184Z,2.37
2017-10-31T20:43:48.110Z,1.90
2017-10-31T20:46:18.978Z,2.50
2017-10-31T20:48:49.869Z,1.80
2017-10-31T20:51:20.756Z,1.70
2017-10-31T20:53:51.750Z,2.23
2017-10-31T20:56:22.562Z,1.60
2017-10-31T20:58:53.456Z,2.00
2017-10-31T21:01:24.454Z,2.63
2017-10-31T21:03:55.505Z,2.22
2017-10-31T21:06:26.421Z,2.00
2017-10-31T21:08:57.288Z,2.13
2017-10-31T21:11:28.187Z,2.17
2017-10-31T21:13:59.040Z,1.83
2017-10-31T21:16:29.929Z,1.40
2017-10-31T21:19:00.776Z,1.30
2017-10-31T21:21:31.692Z,1.33
2017-10-31T21:24:02.553Z,1.20
2017-10-31T21:26:33.559Z,1.80
2017-10-31T21:29:04.414Z,1.40
2017-10-31T21:31:35.316Z,1.30
2017-10-31T21:34:06.269Z,1.33
2017-10-31T21:36:37.114Z,1.20
2017-10-31T21:39:08.013Z,1.43
2017-10-31T21:41:38.907Z,0.97
2017-10-31T21:44:09.797Z,1.30
2017-10-31T21:46:40.680Z,1.17
2017-10-31T21:49:11.571Z,1.23
2017-10-31T21:51:42.450Z,1.47
2017-10-31T21:54:13.345Z,0.90
2017-10-31T21:56:44.200Z,1.30
2017-10-31T21:59:15.100Z,1.27
2017-10-31T22:01:45.985Z,1.53
2017-10-31T22:04:16.902Z,1.73
2017-10-31T22:06:47.802Z,1.70
2017-10-31T22:09:18.702Z,1.30
2017-10-31T22:11:49.605Z,1.60
2017-10-31T22:14:20.583Z,1.20
2017-10-31T22:16:51.455Z,1.50
2017-10-31T22:19:22.329Z,1.27
2017-10-31T22:21:53.233Z,1.23
2017-10-31T22:24:24.107Z,1.40
2017-10-31T22:26:55.001Z,1.40
2017-10-31T22:29:25.887Z,1.67
2017-10-31T22:31:56.756Z,1.57
2017-10-31T22:34:27.661Z,1.97
2017-10-31T22:36:58.554Z,2.73
2017-10-31T22:39:29.461Z,1.73
2017-10-31T22:42:00.368Z,1.67
2017-10-31T22:44:31.235Z,1.60
2017-10-31T22:47:02.134Z,1.50
2017-10-31T22:49:32.992Z,1.90
2017-10-31T22:52:03.952Z,2.20
2017-10-31T22:54:34.795Z,1.90
2017-10-31T22:57:05.713Z,2.00
2017-10-31T22:59:36.597Z,2.40
2017-10-31T23:02:07.487Z,2.23
2017-10-31T23:04:38.352Z,1.97
2017-10-31T23:07:09.402Z,1.60
2017-10-31T23:09:40.293Z,2.12
2017-10-31T23:12:11.276Z,2.30
2017-10-31T23:14:42.160Z,1.67
2017-10-31T23:17:13.163Z,2.33
2017-10-31T23:19:44.199Z,2.00
2017-10-31T23:22:15.078Z,1.92
2017-10-31T23:24:45.978Z,2.23
2017-10-31T23:27:16.832Z,2.27
2017-10-31T23:29:47.717Z,2.10
2017-10-31T23:32:18.624Z,2.10
2017-10-31T23:34:49.626Z,1.73
2017-10-31T23:37:20.502Z,2.08
2017-10-31T23:39:51.377Z,2.07
2017-10-31T23:42:22.277Z,1.80
2017-10-31T23:44:53.286Z,2.20
2017-10-31T23:47:24.203Z,2.03
2017-10-31T23:49:55.087Z,2.00
2017-10-31T23:52:25.958Z,1.93
2017-10-31T23:54:56.870Z,2.10
2017-10-31T23:57:27.773Z,1.80
2017-10-31T23:59:58.654Z,1.50
